Time;durP1;ratioP1;P1;durP2;ratioP2;P2;SDS_P1;SDS_P2;PMS_P1;PMS_P2;Temp;Humidity;BMP_temperature;BMP_pressure;BME280_temperature;BME280_humidity;BME280_pressure;Samples;Min_cycle;Max_cycle;Signal;HPM_P1;HPM_P2
2021/03/24 00:01:22;;;;;;;54.43;38.57;;;;;;;5.03;79.42;102447.94;5096693;28;20031;-40
2021/03/24 00:03:47;;;;;;;48.72;34.55;;;;;;;5.03;78.39;102452.44;5096239;28;20408;-40
2021/03/24 00:06:14;;;;;;;50.00;34.93;;;;;;;4.96;78.57;102446.00;5095503;28;20053;-40
2021/03/24 00:08:40;;;;;;;51.45;36.75;;;;;;;4.99;79.04;102451.06;5096188;28;20063;-40
2021/03/24 00:11:06;;;;;;;48.88;36.92;;;;;;;4.83;78.54;102441.03;5096981;28;20059;-40
2021/03/24 00:13:32;;;;;;;54.85;38.58;;;;;;;4.83;77.52;102446.38;5095723;28;20038;-40
2021/03/24 00:15:59;;;;;;;52.13;37.20;;;;;;;4.82;79.43;102445.56;5096177;28;20036;-40
2021/03/24 00:18:25;;;;;;;50.03;37.50;;;;;;;4.79;80.35;102445.88;5096772;28;20285;-40
2021/03/24 00:20:51;;;;;;;55.15;38.78;;;;;;;4.80;80.12;102444.88;5096883;28;20024;-40
2021/03/24 00:23:16;;;;;;;48.03;35.20;;;;;;;4.83;78.98;102439.22;5095787;28;20052;-40
2021/03/24 00:25:41;;;;;;;55.20;38.23;;;;;;;4.81;79.94;102445.72;5096504;28;20487;-40
2021/03/24 00:28:09;;;;;;;59.70;38.40;;;;;;;4.77;79.35;102437.13;5095837;28;20173;-40
2021/03/24 00:30:38;;;;;;;51.60;37.63;;;;;;;4.70;77.78;102441.44;5095722;28;20034;-40
2021/03/24 00:33:05;;;;;;;53.65;38.53;;;;;;;4.72;79.58;102442.13;5095637;28;20111;-40
2021/03/24 00:35:30;;;;;;;52.28;36.95;;;;;;;4.72;80.52;102441.28;5096183;28;20472;-40
2021/03/24 00:37:57;;;;;;;56.95;39.05;;;;;;;4.67;79.77;102439.06;5095340;28;20036;-41
2021/03/24 00:40:24;;;;;;;;;;;;;;;4.78;78.05;102438.84;5095673;28;20052;-40
2021/03/24 00:42:50;;;;;;;;;;;;;;;4.78;77.73;102428.13;5095980;28;19907;-40
2021/03/24 00:45:16;;;;;;;57.03;38.28;;;;;;;4.63;80.70;102432.31;5096307;28;19935;-40
2021/03/24 00:47:41;;;;;;;54.47;37.83;;;;;;;4.59;79.26;102439.84;5095117;28;20113;-40
2021/03/24 00:50:10;;;;;;;57.35;38.60;;;;;;;4.57;80.12;102443.66;5095698;28;20429;-40
2021/03/24 00:52:36;;;;;;;55.33;37.88;;;;;;;4.49;79.35;102433.72;5095885;28;20021;-40
2021/03/24 00:55:02;;;;;;;57.03;37.40;;;;;;;4.58;80.47;102426.56;5095600;28;20024;-40
2021/03/24 00:57:27;;;;;;;55.58;37.85;;;;;;;4.50;79.51;102432.72;5095756;28;20024;-40
2021/03/24 00:59:52;;;;;;;56.03;38.10;;;;;;;4.45;79.94;102431.50;5095866;28;20103;-40
2021/03/24 01:02:18;;;;;;;53.67;38.40;;;;;;;4.38;78.89;102428.56;5095941;28;20032;-40
2021/03/24 01:04:43;;;;;;;59.03;39.17;;;;;;;4.33;80.17;102422.81;5095388;28;20031;-40
2021/03/24 01:07:10;;;;;;;52.80;38.93;;;;;;;4.26;79.34;102419.91;5095340;28;20076;-40
2021/03/24 01:09:36;;;;;;;50.42;35.45;;;;;;;4.18;76.91;102424.31;5095265;28;20363;-40
2021/03/24 01:12:02;;;;;;;57.33;38.77;;;;;;;4.17;80.78;102414.59;5095229;28;20130;-40
2021/03/24 01:14:27;;;;;;;55.28;37.85;;;;;;;4.12;79.81;102413.22;5094694;28;20254;-40
2021/03/24 01:16:52;;;;;;;53.90;37.33;;;;;;;4.04;79.17;102406.94;5094094;28;20368;-40
2021/03/24 01:19:18;;;;;;;52.03;37.77;;;;;;;4.03;80.50;102407.91;5094890;28;20031;-40
2021/03/24 01:21:43;;;;;;;63.20;39.47;;;;;;;4.11;80.75;102408.88;5094483;28;20036;-40
2021/03/24 01:24:08;;;;;;;51.13;35.30;;;;;;;3.99;79.08;102403.84;5095119;28;20044;-41
2021/03/24 01:26:33;;;;;;;47.97;33.87;;;;;;;3.96;79.06;102401.50;5094721;28;20027;-40
2021/03/24 01:28:59;;;;;;;52.13;36.97;;;;;;;4.05;80.21;102395.22;5094675;28;20023;-40
2021/03/24 01:31:28;;;;;;;54.10;36.47;;;;;;;4.03;80.59;102399.88;5094332;28;20054;-40
2021/03/24 01:33:55;;;;;;;52.30;33.75;;;;;;;3.98;80.38;102397.66;5094841;28;20028;-40
2021/03/24 01:36:21;;;;;;;54.10;37.20;;;;;;;3.92;79.69;102389.41;5094324;28;20031;-40
2021/03/24 01:38:46;;;;;;;51.03;36.75;;;;;;;3.88;79.67;102397.72;5094510;28;20123;-40
2021/03/24 01:41:12;;;;;;;52.63;37.50;;;;;;;3.93;81.09;102397.28;5093987;28;20063;-40
2021/03/24 01:43:37;;;;;;;51.70;36.63;;;;;;;3.92;80.58;102389.41;5094371;28;20077;-40
2021/03/24 01:46:18;;;;;;;56.53;37.00;;;;;;;3.91;80.54;102385.88;5094639;28;20495;-40
2021/03/24 01:48:50;;;;;;;52.67;34.95;;;;;;;3.77;79.68;102395.25;5094193;28;20274;-40
2021/03/24 01:51:17;;;;;;;51.65;36.25;;;;;;;3.83;79.82;102388.44;5094554;28;20095;-40
2021/03/24 01:53:43;;;;;;;51.70;36.15;;;;;;;3.74;79.45;102394.69;5094443;28;20030;-40
2021/03/24 01:56:11;;;;;;;50.80;36.10;;;;;;;3.66;80.38;102392.78;5094225;28;20121;-40
2021/03/24 01:58:37;;;;;;;46.70;33.85;;;;;;;3.64;78.50;102404.59;5094103;28;20031;-41
2021/03/24 02:01:12;;;;;;;49.60;35.92;;;;;;;3.63;81.26;102405.59;5094641;28;20035;-40
2021/03/24 02:03:38;;;;;;;52.40;36.15;;;;;;;3.57;80.72;102399.00;5094565;28;20031;-41
2021/03/24 02:06:13;;;;;;;53.90;36.30;;;;;;;3.60;80.91;102393.34;5093718;28;20028;-41
2021/03/24 02:08:42;;;;;;;50.05;34.97;;;;;;;3.57;81.30;102391.81;5093946;28;20020;-41
2021/03/24 02:11:29;;;;;;;49.13;34.08;;;;;;;3.53;80.17;102390.44;5094475;28;20028;-41
2021/03/24 02:14:05;;;;;;;44.50;33.40;;;;;;;3.50;79.16;102397.88;5093924;28;20035;-40
2021/03/24 02:16:34;;;;;;;47.40;34.00;;;;;;;3.48;79.74;102394.53;5094429;28;20404;-40
2021/03/24 02:19:08;;;;;;;47.10;35.45;;;;;;;3.49;80.72;102389.03;5094259;28;20051;-41
2021/03/24 02:21:36;;;;;;;49.20;34.83;;;;;;;3.45;80.49;102386.78;5094359;28;20024;-41
2021/03/24 02:24:10;;;;;;;49.30;34.17;;;;;;;3.43;79.73;102396.81;5093925;28;20427;-40
2021/03/24 02:26:44;;;;;;;51.45;34.00;;;;;;;3.33;80.72;102389.66;5094320;28;20042;-41
2021/03/24 02:29:17;;;;;;;45.97;33.67;;;;;;;3.46;79.71;102396.50;5093837;28;20016;-40
2021/03/24 02:31:42;;;;;;;43.30;30.73;;;;;;;3.41;80.13;102390.75;5093233;28;20400;-40
2021/03/24 02:34:15;;;;;;;47.13;31.70;;;;;;;3.32;79.53;102390.66;5093658;28;20032;-41
2021/03/24 02:36:42;;;;;;;45.50;32.35;;;;;;;3.36;80.63;102383.16;5093685;28;20063;-40
2021/03/24 02:39:09;;;;;;;;;;;;;;;3.47;79.31;102388.34;5093955;28;20111;-41
2021/03/24 02:41:36;;;;;;;43.13;31.67;;;;;;;3.35;79.84;102382.31;5093912;28;19962;-40
2021/03/24 02:44:03;;;;;;;48.47;32.42;;;;;;;3.28;81.01;102377.72;5091479;28;20415;-41
2021/03/24 02:46:28;;;;;;;41.40;29.38;;;;;;;3.22;79.74;102384.50;5092256;28;20020;-40
2021/03/24 02:48:56;;;;;;;43.07;33.07;;;;;;;3.25;79.38;102372.66;5093226;28;20039;-40
2021/03/24 02:51:24;;;;;;;42.40;31.60;;;;;;;3.19;80.01;102368.72;5093208;28;20030;-41
2021/03/24 02:53:51;;;;;;;44.38;32.80;;;;;;;3.23;80.02;102374.63;5094220;28;20047;-41
2021/03/24 02:56:17;;;;;;;48.25;32.45;;;;;;;3.14;80.47;102370.16;5093484;28;20107;-41
2021/03/24 02:58:42;;;;;;;44.05;31.88;;;;;;;3.10;79.94;102366.91;5093409;28;20100;-41
2021/03/24 03:01:16;;;;;;;47.83;32.03;;;;;;;3.13;80.29;102368.47;5094268;28;20035;-40
2021/03/24 03:03:50;;;;;;;40.63;30.40;;;;;;;3.13;80.85;102371.16;5093000;28;20285;-41
2021/03/24 03:06:20;;;;;;;40.10;29.38;;;;;;;3.06;80.20;102370.88;5093074;28;20039;-41
2021/03/24 03:08:52;;;;;;;41.10;28.95;;;;;;;3.10;80.08;102369.59;5093026;28;20036;-41
2021/03/24 03:11:32;;;;;;;42.60;29.90;;;;;;;3.03;79.71;102374.69;5093872;28;20025;-41
2021/03/24 03:14:07;;;;;;;47.97;32.80;;;;;;;2.99;80.84;102367.94;5093374;28;20077;-41
2021/03/24 03:16:50;;;;;;;44.53;32.28;;;;;;;3.00;80.97;102368.78;5093133;28;20479;-40
2021/03/24 03:19:32;;;;;;;44.72;31.25;;;;;;;2.92;80.23;102372.16;5093504;28;20028;-40
2021/03/24 03:22:06;;;;;;;40.47;29.10;;;;;;;2.95;80.72;102363.88;5093781;28;20051;-41
2021/03/24 03:24:43;;;;;;;40.72;28.85;;;;;;;2.88;79.82;102365.44;5094129;28;20051;-41
2021/03/24 03:27:11;;;;;;;39.05;28.73;;;;;;;2.87;80.17;102357.53;5093167;28;20028;-40
2021/03/24 03:29:38;;;;;;;43.08;30.52;;;;;;;2.93;80.77;102362.31;5093950;28;20111;-40
2021/03/24 03:32:05;;;;;;;37.50;26.40;;;;;;;2.94;81.09;102359.50;5092691;28;20059;-40
2021/03/24 03:34:32;;;;;;;42.83;30.70;;;;;;;2.94;80.81;102356.84;5093606;28;20044;-40
2021/03/24 03:36:59;;;;;;;41.88;29.70;;;;;;;2.92;81.01;102352.59;5092659;28;20404;-40
2021/03/24 03:39:27;;;;;;;41.17;29.42;;;;;;;2.74;79.14;102355.19;5092834;28;20024;-40
2021/03/24 03:41:54;;;;;;;45.10;31.25;;;;;;;2.74;79.85;102358.72;5096432;28;20081;-40
2021/03/24 03:44:21;;;;;;;42.75;30.42;;;;;;;2.69;79.76;102360.13;5096655;28;20028;-40
2021/03/24 03:46:50;;;;;;;39.17;28.55;;;;;;;2.79;81.74;102351.09;5096339;28;20485;-40
2021/03/24 03:49:17;;;;;;;45.25;31.52;;;;;;;2.75;81.01;102355.03;5096582;28;20066;-40
2021/03/24 03:51:51;;;;;;;43.80;32.08;;;;;;;2.75;81.37;102355.03;5096275;28;20027;-40
2021/03/24 03:54:33;;;;;;;46.95;30.63;;;;;;;2.69;80.47;102355.63;5095234;28;20039;-40
2021/03/24 03:57:07;;;;;;;47.10;29.70;;;;;;;2.72;81.01;102354.47;5096705;28;20024;-40
2021/03/24 03:59:40;;;;;;;44.17;30.63;;;;;;;2.65;81.26;102348.88;5097195;28;20416;-40
2021/03/24 04:02:13;;;;;;;41.17;29.00;;;;;;;2.62;80.38;102346.47;5078627;28;20395;-40
2021/03/24 04:04:50;;;;;;;44.63;30.17;;;;;;;2.63;81.32;102353.50;5097059;28;20072;-40
2021/03/24 04:07:23;;;;;;;42.78;31.55;;;;;;;2.54;79.59;102349.03;5096727;28;20077;-40
2021/03/24 04:09:49;;;;;;;40.10;29.42;;;;;;;2.47;80.22;102351.41;5095910;28;20073;-40
2021/03/24 04:12:17;;;;;;;43.97;30.40;;;;;;;2.48;80.62;102354.91;5096162;28;20032;-40
2021/03/24 04:14:44;;;;;;;42.00;30.33;;;;;;;2.47;80.41;102348.72;5096851;28;20367;-40
2021/03/24 04:17:17;;;;;;;41.22;30.83;;;;;;;2.51;80.56;102351.97;5096609;28;20035;-40
2021/03/24 04:19:47;;;;;;;49.40;31.70;;;;;;;2.48;81.84;102341.56;5096820;28;20364;-40
2021/03/24 04:22:15;;;;;;;46.97;32.50;;;;;;;2.44;80.48;102350.84;5095924;28;20439;-40
2021/03/24 04:24:45;;;;;;;46.47;32.70;;;;;;;2.48;81.97;102352.25;5095417;28;20098;-40
2021/03/24 04:27:13;;;;;;;45.80;33.00;;;;;;;2.43;81.17;102343.81;5095874;28;20028;-40
2021/03/24 04:30:10;;;;;;;41.90;29.20;;;;;;;2.47;79.53;102350.56;5096450;28;20036;-40
2021/03/24 04:32:36;;;;;;;46.75;31.23;;;;;;;2.45;80.00;102352.53;5093184;28;20131;-40
2021/03/24 04:35:02;;;;;;;47.40;30.90;;;;;;;2.53;81.46;102358.00;5096061;28;20468;-40
2021/03/24 04:37:41;;;;;;;44.53;30.05;;;;;;;2.39;80.07;102364.63;5095961;28;20044;-40
2021/03/24 04:40:35;;;;;;;47.72;32.33;;;;;;;2.33;80.78;102360.66;5095989;28;20023;-40
2021/03/24 04:43:07;;;;;;;43.30;29.13;;;;;;;2.23;79.33;102359.81;5095508;28;20032;-40
2021/03/24 04:45:52;;;;;;;45.83;30.95;;;;;;;2.17;80.24;102357.72;5095984;28;20032;-40
2021/03/24 04:48:30;;;;;;;47.00;32.50;;;;;;;2.15;81.28;102366.84;5095440;28;20472;-40
2021/03/24 04:51:04;;;;;;;46.10;30.83;;;;;;;2.05;81.67;102370.34;5095010;28;20101;-40
2021/03/24 04:53:32;;;;;;;50.20;31.73;;;;;;;1.95;80.28;102363.28;5095867;28;20060;-40
2021/03/24 04:56:00;;;;;;;46.65;30.15;;;;;;;2.06;81.08;102373.88;5095668;28;20384;-40
2021/03/24 04:58:38;;;;;;;45.15;30.40;;;;;;;2.08;80.91;102371.88;5094897;28;20472;-44
2021/03/24 05:01:10;;;;;;;39.25;27.13;;;;;;;2.15;81.36;102364.16;5095996;28;20391;-40
2021/03/24 05:03:40;;;;;;;42.53;30.08;;;;;;;2.14;81.09;102376.66;5095073;28;20028;-40
2021/03/24 05:06:14;;;;;;;42.33;29.40;;;;;;;2.25;81.64;102368.56;5095377;28;20438;-41
2021/03/24 05:08:42;;;;;;;50.40;33.17;;;;;;;2.26;81.77;102364.06;5095429;28;20373;-40
2021/03/24 05:11:19;;;;;;;50.50;32.63;;;;;;;2.25;81.83;102378.38;5095270;28;20032;-40
2021/03/24 05:14:02;;;;;;;48.15;33.45;;;;;;;2.20;81.07;102376.13;5095498;28;20089;-40
2021/03/24 05:16:34;;;;;;;37.67;26.25;;;;;;;2.32;81.84;102374.16;5094995;28;20024;-41
2021/03/24 05:19:01;;;;;;;41.63;29.48;;;;;;;2.26;81.02;102370.22;5094630;28;20032;-42
2021/03/24 05:21:41;;;;;;;;;;;;;;;2.40;80.36;102365.47;5093753;28;20032;-42
2021/03/24 05:24:08;;;;;;;45.97;29.98;;;;;;;2.28;81.23;102365.59;5094454;28;20380;-41
2021/03/24 05:26:39;;;;;;;47.42;32.30;;;;;;;2.26;80.56;102369.41;5095059;28;20028;-42
2021/03/24 05:29:10;;;;;;;51.15;34.10;;;;;;;2.26;80.95;102369.41;5094674;28;20054;-41
2021/03/24 05:31:42;;;;;;;57.90;33.78;;;;;;;2.30;82.27;102373.47;5095156;28;20364;-41
2021/03/24 05:34:22;;;;;;;50.38;32.63;;;;;;;2.32;81.61;102374.16;5094666;28;20036;-41
2021/03/24 05:36:50;;;;;;;46.55;29.27;;;;;;;2.37;82.17;102373.75;5094563;28;20032;-41
2021/03/24 05:39:26;;;;;;;57.08;34.63;;;;;;;2.33;82.07;102376.69;5094787;28;20032;-41
2021/03/24 05:42:19;;;;;;;46.30;29.75;;;;;;;2.40;82.51;102381.50;5094206;28;20028;-41
2021/03/24 05:44:47;;;;;;;53.50;34.05;;;;;;;2.35;82.46;102378.41;5094353;28;20043;-41
2021/03/24 05:47:57;;;;;;;50.70;32.60;;;;;;;2.40;82.63;102376.16;5094614;28;20028;-41
2021/03/24 05:50:35;;;;;;;53.75;33.42;;;;;;;2.45;81.83;102382.75;5094292;28;20032;-41
2021/03/24 05:53:21;;;;;;;56.33;34.88;;;;;;;2.41;82.81;102381.34;5094221;28;20051;-41
2021/03/24 05:55:49;;;;;;;54.80;34.80;;;;;;;2.43;81.97;102386.53;5094229;28;20107;-41
2021/03/24 05:58:41;;;;;;;55.20;34.05;;;;;;;2.47;82.43;102387.94;5093883;28;20028;-41
2021/03/24 06:01:18;;;;;;;52.33;33.97;;;;;;;2.50;81.99;102382.34;5093895;28;20032;-42
2021/03/24 06:04:15;;;;;;;43.80;30.38;;;;;;;2.57;82.18;102378.09;5094166;28;20071;-41
2021/03/24 06:07:13;;;;;;;52.13;33.92;;;;;;;2.57;81.85;102383.44;5094071;28;20567;-41
2021/03/24 06:10:02;;;;;;;53.90;35.45;;;;;;;2.56;82.82;102376.44;5094017;28;20078;-41
2021/03/24 06:12:42;;;;;;;45.95;28.40;;;;;;;2.77;82.35;102377.09;5094121;28;20028;-41
2021/03/24 06:15:22;;;;;;;49.22;31.52;;;;;;;2.80;82.81;102371.47;5094217;28;20496;-41
2021/03/24 06:18:05;;;;;;;53.55;34.80;;;;;;;2.87;82.74;102371.75;5094196;28;20035;-41
2021/03/24 06:20:44;;;;;;;55.83;34.03;;;;;;;2.95;83.02;102371.03;5093673;28;20035;-42
2021/03/24 06:23:26;;;;;;;58.30;37.42;;;;;;;3.04;83.02;102370.19;5093642;28;20484;-41
2021/03/24 06:26:07;;;;;;;57.13;37.53;;;;;;;3.03;83.37;102363.16;5094018;28;20031;-41
2021/03/24 06:28:49;;;;;;;56.08;37.05;;;;;;;3.06;83.52;102369.03;5093772;28;20028;-41
2021/03/24 06:31:20;;;;;;;55.53;36.75;;;;;;;3.13;83.13;102365.81;5093952;28;20051;-41
2021/03/24 06:34:08;;;;;;;57.75;34.40;;;;;;;3.23;83.34;102367.47;5093613;28;20028;-41
2021/03/24 06:37:02;;;;;;;61.80;37.55;;;;;;;3.26;82.97;102369.81;5093596;28;20035;-41
2021/03/24 06:40:01;;;;;;;58.85;37.47;;;;;;;3.35;82.98;102366.28;5093894;28;20024;-41
2021/03/24 06:42:39;;;;;;;53.58;34.85;;;;;;;3.39;82.79;102366.81;5093804;28;20031;-41
2021/03/24 06:45:35;;;;;;;60.95;37.45;;;;;;;3.48;83.15;102367.78;5093535;28;20356;-41
2021/03/24 06:48:16;;;;;;;56.08;34.92;;;;;;;3.64;82.83;102361.78;5094292;28;20384;-41
2021/03/24 06:51:03;;;;;;;50.70;33.65;;;;;;;3.72;82.58;102365.41;5093724;28;20038;-41
2021/03/24 06:53:54;;;;;;;56.88;36.80;;;;;;;3.78;82.95;102369.31;5093479;28;20043;-40
2021/03/24 06:56:26;;;;;;;56.17;37.28;;;;;;;3.81;82.77;102367.22;5093661;28;20085;-40
2021/03/24 06:58:57;;;;;;;56.45;35.47;;;;;;;3.91;82.91;102369.81;5093937;28;20024;-41
2021/03/24 07:01:38;;;;;;;55.42;36.70;;;;;;;4.00;82.81;102368.94;5093869;28;20024;-41
2021/03/24 07:04:12;;;;;;;55.83;36.28;;;;;;;4.08;82.60;102362.81;5093920;28;20024;-41
2021/03/24 07:06:52;;;;;;;55.28;36.65;;;;;;;4.17;81.91;102363.75;5093839;28;20025;-40
2021/03/24 07:09:33;;;;;;;54.63;35.28;;;;;;;4.28;81.92;102361.66;5093776;28;20027;-41
2021/03/24 07:12:29;;;;;;;56.83;35.20;;;;;;;4.42;81.74;102364.81;5093208;28;20035;-41
2021/03/24 07:15:09;;;;;;;58.70;35.85;;;;;;;4.49;80.96;102357.84;5094606;28;20368;-41
2021/03/24 07:18:01;;;;;;;58.05;36.97;;;;;;;4.57;81.25;102360.59;5096849;28;20070;-41
2021/03/24 07:20:52;;;;;;;55.40;33.50;;;;;;;4.72;80.84;102364.41;5097349;28;20028;-40
2021/03/24 07:23:36;;;;;;;56.90;34.80;;;;;;;4.79;81.04;102361.97;5097183;28;20052;-41
2021/03/24 07:26:32;;;;;;;63.20;38.85;;;;;;;4.91;81.15;102366.88;5096976;28;20040;-41
2021/03/24 07:29:21;;;;;;;55.47;36.00;;;;;;;4.99;80.40;102362.59;5096984;28;20133;-40
2021/03/24 07:32:12;;;;;;;58.40;37.47;;;;;;;5.06;79.69;102360.97;5097193;28;20016;-41
2021/03/24 07:35:02;;;;;;;56.28;35.65;;;;;;;5.21;79.30;102363.91;5094980;28;20076;-41
2021/03/24 07:37:59;;;;;;;63.42;38.17;;;;;;;5.31;79.24;102367.31;5097296;28;20032;-41
2021/03/24 07:40:37;;;;;;;54.50;36.70;;;;;;;5.44;77.86;102365.03;5096503;28;20473;-41
2021/03/24 07:43:20;;;;;;;56.75;35.20;;;;;;;5.59;78.73;102358.06;5096783;28;20024;-41
2021/03/24 07:46:10;;;;;;;56.38;37.45;;;;;;;5.71;78.15;102361.31;5096452;28;20031;-41
2021/03/24 07:48:35;;;;;;;56.13;36.13;;;;;;;5.86;77.91;102362.38;5096909;28;20028;-40
2021/03/24 07:51:36;;;;;;;56.03;36.40;;;;;;;5.95;77.89;102355.19;5097340;28;20051;-41
2021/03/24 07:54:16;;;;;;;55.75;36.38;;;;;;;6.09;77.45;102356.41;5097041;28;20369;-41
2021/03/24 07:57:13;;;;;;;56.17;36.63;;;;;;;6.21;77.25;102357.78;5096986;28;20028;-41
2021/03/24 07:59:48;;;;;;;56.65;36.30;;;;;;;6.34;76.39;102352.75;5097227;28;20035;-41
2021/03/24 08:02:38;;;;;;;56.00;37.25;;;;;;;6.50;75.78;102349.25;5097087;28;20418;-41
2021/03/24 08:05:31;;;;;;;58.10;35.65;;;;;;;6.65;75.72;102355.63;5096771;28;20049;-41
2021/03/24 08:08:17;;;;;;;48.95;33.92;;;;;;;6.72;75.70;102351.25;5096211;28;20052;-41
2021/03/24 08:10:54;;;;;;;60.03;36.58;;;;;;;6.86;74.55;102352.44;5088617;28;20036;-41
2021/03/24 08:13:20;;;;;;;53.17;34.67;;;;;;;6.92;74.21;102338.28;5096144;28;20093;-41
2021/03/24 08:16:01;;;;;;;56.20;36.80;;;;;;;7.11;73.93;102347.00;5096699;28;20028;-41
2021/03/24 08:18:39;;;;;;;54.33;35.63;;;;;;;7.24;73.08;102352.69;5094980;28;20044;-41
2021/03/24 08:21:25;;;;;;;51.03;35.45;;;;;;;7.37;72.98;102344.94;5095698;28;20065;-41
2021/03/24 08:24:01;;;;;;;48.75;33.67;;;;;;;7.51;72.40;102351.41;5096475;28;20048;-41
2021/03/24 08:26:49;;;;;;;53.08;34.75;;;;;;;7.65;72.22;102341.78;5095910;28;20028;-41
2021/03/24 08:29:51;;;;;;;55.42;34.38;;;;;;;7.73;71.63;102339.06;5096343;28;20073;-41
2021/03/24 08:32:35;;;;;;;51.85;34.95;;;;;;;7.88;71.85;102342.69;5096279;28;20020;-41
2021/03/24 08:35:30;;;;;;;50.63;33.35;;;;;;;7.96;70.98;102345.34;5095972;28;20028;-41
2021/03/24 08:38:14;;;;;;;52.47;34.10;;;;;;;8.05;70.62;102345.28;5095442;28;20078;-41
2021/03/24 08:41:24;;;;;;;50.95;32.85;;;;;;;8.19;71.43;102339.13;5096075;28;20070;-41
2021/03/24 08:44:09;;;;;;;48.30;32.38;;;;;;;8.36;70.58;102332.66;5095763;28;20048;-41
2021/03/24 08:46:42;;;;;;;52.60;33.60;;;;;;;8.46;69.24;102332.41;5095762;28;20531;-41
2021/03/24 08:49:16;;;;;;;61.22;36.78;;;;;;;8.54;68.62;102331.47;5096001;28;20039;-41
2021/03/24 08:51:55;;;;;;;56.22;34.90;;;;;;;8.61;67.81;102329.75;5095344;28;20032;-41
2021/03/24 08:54:23;;;;;;;58.70;36.38;;;;;;;8.70;68.24;102331.34;5095506;28;20483;-41
2021/03/24 08:57:10;;;;;;;55.28;35.97;;;;;;;8.84;69.18;102327.03;5095896;28;20035;-41
2021/03/24 09:00:01;;;;;;;54.03;36.35;;;;;;;8.95;68.44;102319.31;5094892;28;20081;-41
2021/03/24 09:03:05;;;;;;;47.97;33.50;;;;;;;9.09;69.00;102319.50;5095984;28;20024;-41
2021/03/24 09:06:02;;;;;;;49.65;32.67;;;;;;;9.23;68.28;102333.00;5052516;28;20041;-41
2021/03/24 09:08:39;;;;;;;49.05;32.25;;;;;;;9.35;68.31;102335.25;5053143;28;20049;-41
2021/03/24 09:11:33;;;;;;;48.40;31.25;;;;;;;9.45;67.93;102331.22;5052701;28;20190;-41
2021/03/24 09:14:33;;;;;;;48.35;30.90;;;;;;;9.64;67.04;102324.41;5052389;28;20108;-41
2021/03/24 09:17:16;;;;;;;49.45;30.10;;;;;;;9.71;65.56;102324.47;5052613;28;20037;-41
2021/03/24 09:20:16;;;;;;;47.13;31.45;;;;;;;9.82;65.38;102315.06;5052880;28;20402;-41
2021/03/24 09:23:28;;;;;;;46.13;31.33;;;;;;;9.98;64.67;102323.78;5052601;28;20500;-41
2021/03/24 09:26:28;;;;;;;47.83;32.45;;;;;;;10.08;64.51;102315.34;5052758;28;20040;-42
2021/03/24 09:29:18;;;;;;;45.90;30.25;;;;;;;10.19;65.91;102322.94;4973908;28;20058;-41
2021/03/24 09:31:56;;;;;;;49.30;30.27;;;;;;;10.34;65.10;102314.81;4973743;28;20515;-41
2021/03/24 09:34:38;;;;;;;50.35;31.77;;;;;;;10.35;62.89;102321.91;4973649;28;20035;-41
2021/03/24 09:37:16;;;;;;;48.33;30.75;;;;;;;10.45;61.60;102313.47;4973651;28;20162;-42
2021/03/24 09:39:48;;;;;;;48.33;32.17;;;;;;;10.58;64.13;102318.97;4973908;28;20039;-41
2021/03/24 09:42:33;;;;;;;46.50;30.17;;;;;;;10.70;63.01;102311.19;4993701;28;20497;-41
2021/03/24 09:45:30;;;;;;;46.65;30.83;;;;;;;10.83;63.57;102308.56;5032676;28;20033;-41
2021/03/24 09:48:10;;;;;;;47.95;31.90;;;;;;;10.82;62.56;102307.72;4992989;28;20121;-41
2021/03/24 09:50:38;;;;;;;42.78;29.95;;;;;;;10.98;61.45;102314.72;4992309;28;20038;-41
2021/03/24 09:53:24;;;;;;;47.50;31.77;;;;;;;11.09;61.59;102307.91;4992557;28;20042;-41
2021/03/24 09:55:56;;;;;;;47.50;29.02;;;;;;;11.17;60.80;102306.91;4992397;28;20104;-41
2021/03/24 09:58:27;;;;;;;44.70;28.75;;;;;;;11.26;60.33;102303.00;4992972;28;20046;-41
2021/03/24 10:01:01;;;;;;;45.22;30.27;;;;;;;11.43;60.09;102298.94;4992853;28;20157;-41
2021/03/24 10:03:36;;;;;;;44.30;28.77;;;;;;;11.53;60.60;102299.41;4996440;28;20034;-41
2021/03/24 10:06:05;;;;;;;42.67;29.27;;;;;;;11.62;59.79;102291.94;5051722;28;20043;-41
2021/03/24 10:08:44;;;;;;;45.85;29.55;;;;;;;11.70;60.82;102291.75;5051400;28;20090;-41
2021/03/24 10:11:20;;;;;;;43.88;28.70;;;;;;;11.78;58.34;102293.44;5052172;28;20051;-41
2021/03/24 10:13:51;;;;;;;42.30;28.58;;;;;;;11.89;58.99;102295.59;5051965;28;20041;-41
2021/03/24 10:16:28;;;;;;;39.42;27.42;;;;;;;11.93;58.33;102291.44;5051899;28;20123;-41
2021/03/24 10:19:13;;;;;;;42.55;27.35;;;;;;;12.10;59.30;102291.88;5051534;28;20033;-41
2021/03/24 10:21:42;;;;;;;43.28;29.20;;;;;;;12.22;57.85;102278.56;5051852;28;20104;-41
2021/03/24 10:24:13;;;;;;;42.33;25.98;;;;;;;12.37;57.72;102277.31;5070936;28;20040;-41
2021/03/24 10:26:52;;;;;;;34.25;24.00;;;;;;;12.49;55.32;102282.09;5094334;28;20020;-41
2021/03/24 10:29:28;;;;;;;39.67;26.45;;;;;;;12.52;54.45;102276.28;5093496;28;20476;-41
2021/03/24 10:32:07;;;;;;;36.47;24.37;;;;;;;12.60;54.85;102281.50;5093799;28;20020;-41
2021/03/24 10:34:45;;;;;;;34.08;22.80;;;;;;;12.44;52.58;102282.72;5092724;28;20595;-41
2021/03/24 10:37:42;;;;;;;35.00;22.30;;;;;;;12.52;53.56;102276.28;5093621;28;20055;-41
2021/03/24 10:40:20;;;;;;;34.80;22.17;;;;;;;12.65;53.09;102278.16;5093944;28;20031;-41
2021/03/24 10:43:09;;;;;;;33.88;22.17;;;;;;;12.85;52.45;102268.09;5093668;28;20024;-41
2021/03/24 10:45:46;;;;;;;34.97;22.30;;;;;;;12.87;52.64;102268.72;5093564;28;20429;-41
2021/03/24 10:48:28;;;;;;;32.70;22.10;;;;;;;12.99;52.84;102266.22;5093557;28;20357;-41
2021/03/24 10:51:19;;;;;;;35.38;22.17;;;;;;;13.13;53.24;102260.53;5098390;28;20019;-41
2021/03/24 10:53:45;;;;;;;31.27;20.05;;;;;;;13.26;51.34;102253.41;5098265;28;20077;-41
2021/03/24 10:56:49;;;;;;;31.27;21.20;;;;;;;13.36;51.53;102253.78;5098298;28;20062;-41
2021/03/24 10:59:34;;;;;;;32.03;20.15;;;;;;;13.48;50.53;102254.78;5097670;28;20054;-41
2021/03/24 11:02:11;;;;;;;31.10;20.35;;;;;;;13.48;51.08;102259.38;5098184;28;20035;-42
2021/03/24 11:04:45;;;;;;;30.80;20.08;;;;;;;13.58;50.08;102255.16;5098224;28;20032;-41
2021/03/24 11:07:36;;;;;;;29.80;20.02;;;;;;;13.75;51.56;102254.63;5097745;28;20039;-41
2021/03/24 11:10:10;;;;;;;29.08;20.65;;;;;;;13.77;50.26;102252.56;5098027;28;20023;-41
2021/03/24 11:12:40;;;;;;;29.25;20.45;;;;;;;13.88;50.78;102251.84;5097442;28;20024;-41
2021/03/24 11:15:18;;;;;;;27.98;20.92;;;;;;;13.93;48.90;102249.31;5097377;28;20035;-41
2021/03/24 11:17:44;;;;;;;28.15;20.23;;;;;;;13.88;48.71;102254.56;5097051;28;20025;-41
2021/03/24 11:20:13;;;;;;;27.73;19.48;;;;;;;13.92;49.32;102244.94;5096271;28;20039;-41
2021/03/24 11:23:02;;;;;;;27.92;18.73;;;;;;;14.17;51.85;102248.50;5096879;28;20032;-41
2021/03/24 11:25:49;;;;;;;26.00;18.90;;;;;;;14.22;50.77;102249.72;5097535;28;20044;-42
2021/03/24 11:28:32;;;;;;;26.90;18.65;;;;;;;14.27;49.05;102249.91;5097874;28;20369;-41
2021/03/24 11:31:06;;;;;;;28.35;19.08;;;;;;;14.27;48.75;102242.56;5097088;28;20032;-41
2021/03/24 11:33:47;;;;;;;28.58;20.08;;;;;;;14.29;48.56;102234.19;5097221;28;20483;-42
2021/03/24 11:36:31;;;;;;;26.73;19.52;;;;;;;14.27;48.59;102241.75;5097127;28;20020;-41
2021/03/24 11:39:23;;;;;;;28.40;19.83;;;;;;;14.25;47.98;102236.53;5096878;28;20028;-41
2021/03/24 11:41:49;;;;;;;25.48;17.90;;;;;;;14.24;49.75;102231.28;5096841;28;20052;-42
2021/03/24 11:44:18;;;;;;;28.48;19.83;;;;;;;14.27;50.26;102230.84;5096666;28;20054;-41
2021/03/24 11:46:43;;;;;;;28.60;20.58;;;;;;;14.36;50.21;102238.53;5096770;28;20039;-41
2021/03/24 11:49:24;;;;;;;30.83;21.27;;;;;;;14.43;49.98;102231.13;5096942;28;20058;-41
2021/03/24 11:51:58;;;;;;;32.03;22.00;;;;;;;14.50;48.80;102225.66;5096987;28;20111;-41
2021/03/24 11:54:36;;;;;;;28.67;19.77;;;;;;;14.50;48.13;102231.09;5096892;28;20031;-41
2021/03/24 11:57:14;;;;;;;27.00;19.20;;;;;;;14.40;47.94;102209.81;5096741;28;20042;-41
2021/03/24 12:00:16;;;;;;;26.95;18.42;;;;;;;14.50;49.32;102212.06;5096807;28;20020;-41